sensor_id;sensor_type;location;lat;lon;timestamp;P1;durP1;ratioP1;P2;durP2;ratioP2
21539;SDS011;10931;52.164;5.518;2022-09-03T00:02:35;1.55;;;0.73;;
21539;SDS011;10931;52.164;5.518;2022-09-03T00:07:51;2.25;;;0.85;;
21539;SDS011;10931;52.164;5.518;2022-09-03T00:10:55;1.10;;;1.00;;
21539;SDS011;10931;52.164;5.518;2022-09-03T00:13:26;1.60;;;0.80;;
21539;SDS011;10931;52.164;5.518;2022-09-03T00:15:58;1.00;;;0.77;;
21539;SDS011;10931;52.164;5.518;2022-09-03T00:18:34;2.25;;;0.90;;
21539;SDS011;10931;52.164;5.518;2022-09-03T00:24:04;0.80;;;0.70;;
21539;SDS011;10931;52.164;5.518;2022-09-03T00:26:34;0.70;;;0.70;;
21539;SDS011;10931;52.164;5.518;2022-09-03T00:29:05;0.80;;;0.80;;
21539;SDS011;10931;52.164;5.518;2022-09-03T00:31:43;1.10;;;1.00;;
21539;SDS011;10931;52.164;5.518;2022-09-03T00:37:03;1.13;;;0.70;;
21539;SDS011;10931;52.164;5.518;2022-09-03T00:39:34;0.75;;;0.70;;
21539;SDS011;10931;52.164;5.518;2022-09-03T00:45:15;0.80;;;0.75;;
21539;SDS011;10931;52.164;5.518;2022-09-03T00:48:12;1.15;;;0.80;;
21539;SDS011;10931;52.164;5.518;2022-09-03T00:56:38;1.00;;;0.70;;
21539;SDS011;10931;52.164;5.518;2022-09-03T01:07:08;0.90;;;0.80;;
21539;SDS011;10931;52.164;5.518;2022-09-03T01:10:00;1.15;;;0.80;;
21539;SDS011;10931;52.164;5.518;2022-09-03T01:12:35;0.80;;;0.80;;
21539;SDS011;10931;52.164;5.518;2022-09-03T01:24:13;0.68;;;0.68;;
21539;SDS011;10931;52.164;5.518;2022-09-03T01:29:56;0.95;;;0.90;;
21539;SDS011;10931;52.164;5.518;2022-09-03T01:35:33;0.60;;;0.60;;
21539;SDS011;10931;52.164;5.518;2022-09-03T01:50:20;0.82;;;0.73;;
21539;SDS011;10931;52.164;5.518;2022-09-03T01:56:16;1.35;;;0.73;;
21539;SDS011;10931;52.164;5.518;2022-09-03T01:59:06;0.82;;;0.70;;
21539;SDS011;10931;52.164;5.518;2022-09-03T02:02:02;0.68;;;0.60;;
21539;SDS011;10931;52.164;5.518;2022-09-03T02:04:30;1.02;;;0.80;;
21539;SDS011;10931;52.164;5.518;2022-09-03T02:06:56;0.80;;;0.57;;
21539;SDS011;10931;52.164;5.518;2022-09-03T02:09:25;1.13;;;0.80;;
21539;SDS011;10931;52.164;5.518;2022-09-03T02:11:53;0.77;;;0.70;;
21539;SDS011;10931;52.164;5.518;2022-09-03T02:14:27;0.70;;;0.65;;
21539;SDS011;10931;52.164;5.518;2022-09-03T02:16:59;1.17;;;0.60;;
21539;SDS011;10931;52.164;5.518;2022-09-03T02:19:28;1.20;;;0.80;;
21539;SDS011;10931;52.164;5.518;2022-09-03T02:21:57;1.00;;;0.80;;
21539;SDS011;10931;52.164;5.518;2022-09-03T02:24:23;1.58;;;0.80;;
21539;SDS011;10931;52.164;5.518;2022-09-03T02:26:53;1.45;;;0.70;;
21539;SDS011;10931;52.164;5.518;2022-09-03T02:29:20;1.73;;;0.82;;
21539;SDS011;10931;52.164;5.518;2022-09-03T02:31:46;0.90;;;0.70;;
21539;SDS011;10931;52.164;5.518;2022-09-03T02:34:12;0.90;;;0.60;;
21539;SDS011;10931;52.164;5.518;2022-09-03T02:36:41;1.00;;;0.77;;
21539;SDS011;10931;52.164;5.518;2022-09-03T02:39:20;1.73;;;0.70;;
21539;SDS011;10931;52.164;5.518;2022-09-03T02:41:51;0.60;;;0.50;;
21539;SDS011;10931;52.164;5.518;2022-09-03T02:44:24;0.70;;;0.70;;
21539;SDS011;10931;52.164;5.518;2022-09-03T02:49:43;0.70;;;0.68;;
21539;SDS011;10931;52.164;5.518;2022-09-03T02:52:10;1.45;;;0.73;;
21539;SDS011;10931;52.164;5.518;2022-09-03T02:54:39;0.70;;;0.60;;
21539;SDS011;10931;52.164;5.518;2022-09-03T02:57:19;1.58;;;0.80;;
21539;SDS011;10931;52.164;5.518;2022-09-03T02:59:47;0.65;;;0.65;;
21539;SDS011;10931;52.164;5.518;2022-09-03T03:02:15;2.22;;;0.60;;
21539;SDS011;10931;52.164;5.518;2022-09-03T03:04:54;0.80;;;0.70;;
21539;SDS011;10931;52.164;5.518;2022-09-03T03:07:20;0.50;;;0.50;;
21539;SDS011;10931;52.164;5.518;2022-09-03T03:09:49;0.93;;;0.70;;
21539;SDS011;10931;52.164;5.518;2022-09-03T03:12:26;1.15;;;0.60;;
21539;SDS011;10931;52.164;5.518;2022-09-03T03:14:56;1.95;;;0.70;;
21539;SDS011;10931;52.164;5.518;2022-09-03T03:17:22;0.77;;;0.63;;
21539;SDS011;10931;52.164;5.518;2022-09-03T03:19:48;1.42;;;0.70;;
21539;SDS011;10931;52.164;5.518;2022-09-03T03:22:25;0.60;;;0.60;;
21539;SDS011;10931;52.164;5.518;2022-09-03T03:24:56;0.93;;;0.55;;
21539;SDS011;10931;52.164;5.518;2022-09-03T03:27:22;1.10;;;0.80;;
21539;SDS011;10931;52.164;5.518;2022-09-03T03:29:48;0.77;;;0.60;;
21539;SDS011;10931;52.164;5.518;2022-09-03T03:34:43;1.25;;;0.63;;
21539;SDS011;10931;52.164;5.518;2022-09-03T03:37:09;0.70;;;0.55;;
21539;SDS011;10931;52.164;5.518;2022-09-03T03:39:37;0.73;;;0.50;;
21539;SDS011;10931;52.164;5.518;2022-09-03T03:42:04;1.05;;;0.65;;
21539;SDS011;10931;52.164;5.518;2022-09-03T03:44:33;0.73;;;0.70;;
21539;SDS011;10931;52.164;5.518;2022-09-03T03:47:01;1.25;;;0.70;;
21539;SDS011;10931;52.164;5.518;2022-09-03T03:49:29;0.82;;;0.60;;
21539;SDS011;10931;52.164;5.518;2022-09-03T03:51:58;1.00;;;0.80;;
21539;SDS011;10931;52.164;5.518;2022-09-03T03:54:24;0.93;;;0.70;;
21539;SDS011;10931;52.164;5.518;2022-09-03T03:56:57;0.60;;;0.52;;
21539;SDS011;10931;52.164;5.518;2022-09-03T03:59:29;0.60;;;0.60;;
21539;SDS011;10931;52.164;5.518;2022-09-03T04:01:57;1.50;;;0.70;;
21539;SDS011;10931;52.164;5.518;2022-09-03T04:04:31;0.73;;;0.60;;
21539;SDS011;10931;52.164;5.518;2022-09-03T04:06:59;0.70;;;0.60;;
21539;SDS011;10931;52.164;5.518;2022-09-03T04:09:35;1.13;;;0.80;;
21539;SDS011;10931;52.164;5.518;2022-09-03T04:12:02;0.70;;;0.60;;
21539;SDS011;10931;52.164;5.518;2022-09-03T04:14:32;0.70;;;0.70;;
21539;SDS011;10931;52.164;5.518;2022-09-03T04:17:01;0.45;;;0.45;;
21539;SDS011;10931;52.164;5.518;2022-09-03T04:19:27;0.70;;;0.70;;
21539;SDS011;10931;52.164;5.518;2022-09-03T04:21:56;0.98;;;0.70;;
21539;SDS011;10931;52.164;5.518;2022-09-03T04:24:22;1.05;;;0.63;;
21539;SDS011;10931;52.164;5.518;2022-09-03T04:26:49;0.85;;;0.60;;
21539;SDS011;10931;52.164;5.518;2022-09-03T04:29:14;0.52;;;0.50;;
21539;SDS011;10931;52.164;5.518;2022-09-03T04:31:43;1.85;;;0.68;;
21539;SDS011;10931;52.164;5.518;2022-09-03T04:34:29;0.77;;;0.60;;
21539;SDS011;10931;52.164;5.518;2022-09-03T04:37:00;0.93;;;0.80;;
21539;SDS011;10931;52.164;5.518;2022-09-03T04:39:29;0.82;;;0.60;;
21539;SDS011;10931;52.164;5.518;2022-09-03T04:42:00;1.38;;;0.57;;
21539;SDS011;10931;52.164;5.518;2022-09-03T04:44:28;0.80;;;0.70;;
21539;SDS011;10931;52.164;5.518;2022-09-03T04:47:00;1.10;;;0.70;;
21539;SDS011;10931;52.164;5.518;2022-09-03T04:49:25;0.82;;;0.70;;
21539;SDS011;10931;52.164;5.518;2022-09-03T04:51:56;0.60;;;0.60;;
21539;SDS011;10931;52.164;5.518;2022-09-03T04:54:25;0.60;;;0.50;;
21539;SDS011;10931;52.164;5.518;2022-09-03T04:56:54;0.75;;;0.65;;
21539;SDS011;10931;52.164;5.518;2022-09-03T04:59:19;0.65;;;0.60;;
21539;SDS011;10931;52.164;5.518;2022-09-03T05:01:48;1.48;;;0.50;;
21539;SDS011;10931;52.164;5.518;2022-09-03T05:04:23;0.70;;;0.60;;
21539;SDS011;10931;52.164;5.518;2022-09-03T05:06:52;0.85;;;0.60;;
21539;SDS011;10931;52.164;5.518;2022-09-03T05:09:29;0.60;;;0.57;;
21539;SDS011;10931;52.164;5.518;2022-09-03T05:14:55;1.08;;;0.75;;
21539;SDS011;10931;52.164;5.518;2022-09-03T05:17:22;0.80;;;0.60;;
21539;SDS011;10931;52.164;5.518;2022-09-03T05:19:50;0.95;;;0.70;;
21539;SDS011;10931;52.164;5.518;2022-09-03T05:22:18;0.90;;;0.52;;
21539;SDS011;10931;52.164;5.518;2022-09-03T05:24:47;1.08;;;0.40;;
21539;SDS011;10931;52.164;5.518;2022-09-03T05:27:13;0.82;;;0.47;;
21539;SDS011;10931;52.164;5.518;2022-09-03T05:29:42;0.50;;;0.50;;
21539;SDS011;10931;52.164;5.518;2022-09-03T05:32:09;0.90;;;0.57;;
21539;SDS011;10931;52.164;5.518;2022-09-03T05:34:40;0.40;;;0.40;;
21539;SDS011;10931;52.164;5.518;2022-09-03T05:37:07;0.80;;;0.60;;
21539;SDS011;10931;52.164;5.518;2022-09-03T05:39:32;1.20;;;0.65;;
21539;SDS011;10931;52.164;5.518;2022-09-03T05:41:58;0.40;;;0.40;;
21539;SDS011;10931;52.164;5.518;2022-09-03T05:44:24;0.55;;;0.52;;
21539;SDS011;10931;52.164;5.518;2022-09-03T05:46:49;0.73;;;0.60;;
21539;SDS011;10931;52.164;5.518;2022-09-03T05:49:16;0.75;;;0.60;;
21539;SDS011;10931;52.164;5.518;2022-09-03T05:51:42;0.63;;;0.60;;
21539;SDS011;10931;52.164;5.518;2022-09-03T05:54:08;1.63;;;0.80;;
21539;SDS011;10931;52.164;5.518;2022-09-03T05:56:35;0.93;;;0.60;;
21539;SDS011;10931;52.164;5.518;2022-09-03T05:59:04;0.82;;;0.60;;
21539;SDS011;10931;52.164;5.518;2022-09-03T06:01:32;1.33;;;0.60;;
21539;SDS011;10931;52.164;5.518;2022-09-03T06:04:06;0.85;;;0.65;;
21539;SDS011;10931;52.164;5.518;2022-09-03T06:06:37;0.50;;;0.50;;
21539;SDS011;10931;52.164;5.518;2022-09-03T06:09:05;0.55;;;0.55;;
21539;SDS011;10931;52.164;5.518;2022-09-03T06:11:35;0.90;;;0.60;;
21539;SDS011;10931;52.164;5.518;2022-09-03T06:14:03;1.10;;;0.60;;
21539;SDS011;10931;52.164;5.518;2022-09-03T06:16:33;1.55;;;0.50;;
21539;SDS011;10931;52.164;5.518;2022-09-03T06:19:00;1.00;;;0.55;;
21539;SDS011;10931;52.164;5.518;2022-09-03T06:21:27;0.63;;;0.50;;
21539;SDS011;10931;52.164;5.518;2022-09-03T06:23:55;0.80;;;0.50;;
21539;SDS011;10931;52.164;5.518;2022-09-03T06:26:22;0.95;;;0.63;;
21539;SDS011;10931;52.164;5.518;2022-09-03T06:28:48;0.63;;;0.55;;
21539;SDS011;10931;52.164;5.518;2022-09-03T06:31:16;0.50;;;0.50;;
21539;SDS011;10931;52.164;5.518;2022-09-03T06:33:55;0.50;;;0.50;;
21539;SDS011;10931;52.164;5.518;2022-09-03T06:36:21;0.73;;;0.60;;
21539;SDS011;10931;52.164;5.518;2022-09-03T06:38:50;0.85;;;0.70;;
21539;SDS011;10931;52.164;5.518;2022-09-03T06:41:18;0.40;;;0.40;;
21539;SDS011;10931;52.164;5.518;2022-09-03T06:43:47;0.75;;;0.50;;
21539;SDS011;10931;52.164;5.518;2022-09-03T06:46:14;2.72;;;0.65;;
21539;SDS011;10931;52.164;5.518;2022-09-03T06:48:41;0.90;;;0.50;;
21539;SDS011;10931;52.164;5.518;2022-09-03T06:51:11;0.50;;;0.50;;
21539;SDS011;10931;52.164;5.518;2022-09-03T06:53:43;1.08;;;0.60;;
21539;SDS011;10931;52.164;5.518;2022-09-03T06:56:11;0.70;;;0.50;;
21539;SDS011;10931;52.164;5.518;2022-09-03T06:58:42;0.88;;;0.60;;
21539;SDS011;10931;52.164;5.518;2022-09-03T07:01:11;0.80;;;0.80;;
21539;SDS011;10931;52.164;5.518;2022-09-03T07:03:39;1.77;;;0.80;;
21539;SDS011;10931;52.164;5.518;2022-09-03T07:06:11;0.75;;;0.50;;
21539;SDS011;10931;52.164;5.518;2022-09-03T07:08:44;0.65;;;0.60;;
21539;SDS011;10931;52.164;5.518;2022-09-03T07:14:10;0.60;;;0.57;;
21539;SDS011;10931;52.164;5.518;2022-09-03T07:16:42;0.65;;;0.52;;
21539;SDS011;10931;52.164;5.518;2022-09-03T07:21:51;2.88;;;0.70;;
21539;SDS011;10931;52.164;5.518;2022-09-03T07:24:19;0.88;;;0.50;;
21539;SDS011;10931;52.164;5.518;2022-09-03T07:26:53;2.90;;;0.70;;
21539;SDS011;10931;52.164;5.518;2022-09-03T07:29:31;1.27;;;0.68;;
21539;SDS011;10931;52.164;5.518;2022-09-03T07:31:57;0.98;;;0.50;;
21539;SDS011;10931;52.164;5.518;2022-09-03T07:34:27;1.70;;;0.90;;
21539;SDS011;10931;52.164;5.518;2022-09-03T07:36:54;0.65;;;0.47;;
21539;SDS011;10931;52.164;5.518;2022-09-03T07:39:20;0.60;;;0.60;;
21539;SDS011;10931;52.164;5.518;2022-09-03T07:41:46;1.42;;;0.70;;
21539;SDS011;10931;52.164;5.518;2022-09-03T07:44:17;0.60;;;0.60;;
21539;SDS011;10931;52.164;5.518;2022-09-03T07:46:52;0.63;;;0.40;;
21539;SDS011;10931;52.164;5.518;2022-09-03T07:49:19;0.95;;;0.60;;
21539;SDS011;10931;52.164;5.518;2022-09-03T07:51:45;2.13;;;0.80;;
21539;SDS011;10931;52.164;5.518;2022-09-03T07:54:15;0.98;;;0.50;;
21539;SDS011;10931;52.164;5.518;2022-09-03T07:56:43;1.17;;;0.63;;
21539;SDS011;10931;52.164;5.518;2022-09-03T07:59:09;0.90;;;0.60;;
21539;SDS011;10931;52.164;5.518;2022-09-03T08:01:36;0.63;;;0.60;;
21539;SDS011;10931;52.164;5.518;2022-09-03T08:04:02;2.42;;;0.70;;
21539;SDS011;10931;52.164;5.518;2022-09-03T08:09:03;2.60;;;0.90;;
21539;SDS011;10931;52.164;5.518;2022-09-03T08:11:42;0.65;;;0.55;;
21539;SDS011;10931;52.164;5.518;2022-09-03T08:14:14;0.68;;;0.50;;
21539;SDS011;10931;52.164;5.518;2022-09-03T08:16:46;1.30;;;0.75;;
21539;SDS011;10931;52.164;5.518;2022-09-03T08:19:13;1.52;;;0.80;;
21539;SDS011;10931;52.164;5.518;2022-09-03T08:21:44;0.95;;;0.52;;
21539;SDS011;10931;52.164;5.518;2022-09-03T08:24:11;0.52;;;0.50;;
21539;SDS011;10931;52.164;5.518;2022-09-03T08:26:51;0.98;;;0.60;;
21539;SDS011;10931;52.164;5.518;2022-09-03T08:29:17;0.88;;;0.60;;
21539;SDS011;10931;52.164;5.518;2022-09-03T08:31:42;1.05;;;0.50;;
21539;SDS011;10931;52.164;5.518;2022-09-03T08:34:08;1.35;;;0.50;;
21539;SDS011;10931;52.164;5.518;2022-09-03T08:36:36;1.23;;;0.60;;
21539;SDS011;10931;52.164;5.518;2022-09-03T08:39:07;1.15;;;0.50;;
21539;SDS011;10931;52.164;5.518;2022-09-03T08:41:55;0.60;;;0.60;;
21539;SDS011;10931;52.164;5.518;2022-09-03T08:44:50;1.75;;;0.55;;
21539;SDS011;10931;52.164;5.518;2022-09-03T09:10:27;0.80;;;0.52;;
21539;SDS011;10931;52.164;5.518;2022-09-03T09:25:48;0.98;;;0.73;;
21539;SDS011;10931;52.164;5.518;2022-09-03T09:28:18;1.10;;;0.43;;
21539;SDS011;10931;52.164;5.518;2022-09-03T09:30:49;1.10;;;0.60;;
21539;SDS011;10931;52.164;5.518;2022-09-03T09:39:06;1.05;;;0.57;;
21539;SDS011;10931;52.164;5.518;2022-09-03T09:41:57;0.93;;;0.55;;
21539;SDS011;10931;52.164;5.518;2022-09-03T09:44:47;1.38;;;0.65;;
21539;SDS011;10931;52.164;5.518;2022-09-03T09:47:21;0.75;;;0.50;;
21539;SDS011;10931;52.164;5.518;2022-09-03T09:49:56;1.83;;;0.98;;
21539;SDS011;10931;52.164;5.518;2022-09-03T09:52:32;0.70;;;0.60;;
21539;SDS011;10931;52.164;5.518;2022-09-03T09:55:06;0.80;;;0.68;;
21539;SDS011;10931;52.164;5.518;2022-09-03T10:00:53;0.73;;;0.50;;
21539;SDS011;10931;52.164;5.518;2022-09-03T10:06:00;1.10;;;0.60;;
21539;SDS011;10931;52.164;5.518;2022-09-03T10:15:02;0.60;;;0.50;;
21539;SDS011;10931;52.164;5.518;2022-09-03T10:17:51;0.68;;;0.60;;
21539;SDS011;10931;52.164;5.518;2022-09-03T10:20:33;0.65;;;0.60;;
21539;SDS011;10931;52.164;5.518;2022-09-03T10:23:21;1.05;;;0.55;;
21539;SDS011;10931;52.164;5.518;2022-09-03T10:51:17;1.17;;;0.57;;
21539;SDS011;10931;52.164;5.518;2022-09-03T11:05:13;0.98;;;0.60;;
21539;SDS011;10931;52.164;5.518;2022-09-03T11:07:52;0.80;;;0.60;;
21539;SDS011;10931;52.164;5.518;2022-09-03T11:11:06;0.88;;;0.68;;
21539;SDS011;10931;52.164;5.518;2022-09-03T11:13:58;2.70;;;0.63;;
21539;SDS011;10931;52.164;5.518;2022-09-03T11:16:47;0.73;;;0.55;;
21539;SDS011;10931;52.164;5.518;2022-09-03T11:19:23;0.70;;;0.50;;
21539;SDS011;10931;52.164;5.518;2022-09-03T11:22:12;0.90;;;0.50;;
21539;SDS011;10931;52.164;5.518;2022-09-03T11:24:49;0.60;;;0.60;;
21539;SDS011;10931;52.164;5.518;2022-09-03T11:27:30;0.77;;;0.73;;
21539;SDS011;10931;52.164;5.518;2022-09-03T11:30:14;2.80;;;0.80;;
21539;SDS011;10931;52.164;5.518;2022-09-03T11:33:11;3.53;;;0.75;;
21539;SDS011;10931;52.164;5.518;2022-09-03T11:35:39;6.18;;;1.23;;
21539;SDS011;10931;52.164;5.518;2022-09-03T11:41:00;13.48;;;3.47;;
21539;SDS011;10931;52.164;5.518;2022-09-03T11:43:48;9.80;;;2.55;;
21539;SDS011;10931;52.164;5.518;2022-09-03T11:49:43;11.43;;;3.55;;
21539;SDS011;10931;52.164;5.518;2022-09-03T11:52:25;6.22;;;2.65;;
21539;SDS011;10931;52.164;5.518;2022-09-03T11:54:53;7.97;;;2.67;;
21539;SDS011;10931;52.164;5.518;2022-09-03T11:57:41;8.88;;;2.08;;
21539;SDS011;10931;52.164;5.518;2022-09-03T12:00:14;5.97;;;1.75;;
21539;SDS011;10931;52.164;5.518;2022-09-03T12:06:12;10.77;;;2.80;;
21539;SDS011;10931;52.164;5.518;2022-09-03T12:19:59;6.90;;;1.70;;
21539;SDS011;10931;52.164;5.518;2022-09-03T12:22:40;6.88;;;1.42;;
21539;SDS011;10931;52.164;5.518;2022-09-03T13:06:12;4.15;;;1.30;;
21539;SDS011;10931;52.164;5.518;2022-09-03T13:41:01;1.25;;;0.57;;
21539;SDS011;10931;52.164;5.518;2022-09-03T13:58:43;2.70;;;1.00;;
21539;SDS011;10931;52.164;5.518;2022-09-03T14:02:01;1.52;;;0.70;;
21539;SDS011;10931;52.164;5.518;2022-09-03T14:11:02;1.45;;;0.70;;
21539;SDS011;10931;52.164;5.518;2022-09-03T14:17:04;1.98;;;0.80;;
21539;SDS011;10931;52.164;5.518;2022-09-03T14:19:59;0.98;;;0.73;;
21539;SDS011;10931;52.164;5.518;2022-09-03T14:26:32;1.05;;;0.60;;
21539;SDS011;10931;52.164;5.518;2022-09-03T14:29:22;2.20;;;0.90;;
21539;SDS011;10931;52.164;5.518;2022-09-03T14:38:39;1.10;;;0.77;;
21539;SDS011;10931;52.164;5.518;2022-09-03T14:44:18;1.15;;;0.70;;
21539;SDS011;10931;52.164;5.518;2022-09-03T15:11:58;0.95;;;0.70;;
21539;SDS011;10931;52.164;5.518;2022-09-03T15:17:49;1.25;;;0.68;;
21539;SDS011;10931;52.164;5.518;2022-09-03T15:30:16;1.10;;;0.63;;
21539;SDS011;10931;52.164;5.518;2022-09-03T15:45:31;1.33;;;0.90;;
21539;SDS011;10931;52.164;5.518;2022-09-03T15:54:09;1.27;;;0.80;;
21539;SDS011;10931;52.164;5.518;2022-09-03T15:56:52;1.13;;;0.80;;
21539;SDS011;10931;52.164;5.518;2022-09-03T16:05:56;0.60;;;0.60;;
21539;SDS011;10931;52.164;5.518;2022-09-03T16:14:11;1.05;;;0.77;;
21539;SDS011;10931;52.164;5.518;2022-09-03T16:23:40;1.00;;;0.70;;
21539;SDS011;10931;52.164;5.518;2022-09-03T16:39:08;0.80;;;0.70;;
21539;SDS011;10931;52.164;5.518;2022-09-03T16:50:50;0.80;;;0.73;;
21539;SDS011;10931;52.164;5.518;2022-09-03T17:32:34;0.80;;;0.70;;
21539;SDS011;10931;52.164;5.518;2022-09-03T17:45:58;0.50;;;0.50;;
21539;SDS011;10931;52.164;5.518;2022-09-03T17:48:53;0.68;;;0.60;;
21539;SDS011;10931;52.164;5.518;2022-09-03T18:05:42;0.70;;;0.63;;
21539;SDS011;10931;52.164;5.518;2022-09-03T18:17:04;1.38;;;0.55;;
21539;SDS011;10931;52.164;5.518;2022-09-03T18:20:13;0.68;;;0.50;;
21539;SDS011;10931;52.164;5.518;2022-09-03T18:26:38;0.63;;;0.50;;
21539;SDS011;10931;52.164;5.518;2022-09-03T18:32:17;0.82;;;0.68;;
21539;SDS011;10931;52.164;5.518;2022-09-03T18:38:01;0.73;;;0.60;;
21539;SDS011;10931;52.164;5.518;2022-09-03T18:53:36;2.25;;;0.75;;
21539;SDS011;10931;52.164;5.518;2022-09-03T19:09:39;0.60;;;0.50;;
21539;SDS011;10931;52.164;5.518;2022-09-03T19:22:03;1.08;;;0.70;;
21539;SDS011;10931;52.164;5.518;2022-09-03T19:25:05;1.55;;;0.70;;
21539;SDS011;10931;52.164;5.518;2022-09-03T19:40:58;1.20;;;0.60;;
21539;SDS011;10931;52.164;5.518;2022-09-03T19:50:52;0.82;;;0.60;;
21539;SDS011;10931;52.164;5.518;2022-09-03T19:59:35;0.70;;;0.70;;
21539;SDS011;10931;52.164;5.518;2022-09-03T20:08:24;0.95;;;0.70;;
21539;SDS011;10931;52.164;5.518;2022-09-03T20:11:10;1.17;;;0.70;;
21539;SDS011;10931;52.164;5.518;2022-09-03T20:13:45;2.50;;;0.60;;
21539;SDS011;10931;52.164;5.518;2022-09-03T20:19:16;1.50;;;0.80;;
21539;SDS011;10931;52.164;5.518;2022-09-03T20:30:58;1.10;;;0.55;;
21539;SDS011;10931;52.164;5.518;2022-09-03T20:36:39;0.88;;;0.80;;
21539;SDS011;10931;52.164;5.518;2022-09-03T20:51:37;1.58;;;0.70;;
21539;SDS011;10931;52.164;5.518;2022-09-03T21:06:14;1.17;;;0.70;;
21539;SDS011;10931;52.164;5.518;2022-09-03T21:11:21;0.95;;;0.82;;
21539;SDS011;10931;52.164;5.518;2022-09-03T21:42:30;2.50;;;1.02;;
21539;SDS011;10931;52.164;5.518;2022-09-03T21:55:16;2.05;;;1.00;;
21539;SDS011;10931;52.164;5.518;2022-09-03T22:00:36;1.30;;;0.80;;
21539;SDS011;10931;52.164;5.518;2022-09-03T22:06:06;1.80;;;1.00;;
21539;SDS011;10931;52.164;5.518;2022-09-03T22:15:28;1.48;;;0.80;;
21539;SDS011;10931;52.164;5.518;2022-09-03T22:21:39;1.17;;;0.98;;
21539;SDS011;10931;52.164;5.518;2022-09-03T22:30:47;1.55;;;0.93;;
21539;SDS011;10931;52.164;5.518;2022-09-03T22:33:30;1.10;;;0.95;;
21539;SDS011;10931;52.164;5.518;2022-09-03T22:39:36;2.55;;;1.40;;
21539;SDS011;10931;52.164;5.518;2022-09-03T22:42:15;1.48;;;0.98;;
21539;SDS011;10931;52.164;5.518;2022-09-03T23:20:28;1.10;;;0.85;;
21539;SDS011;10931;52.164;5.518;2022-09-03T23:31:22;1.75;;;1.05;;
21539;SDS011;10931;52.164;5.518;2022-09-03T23:42:24;1.85;;;1.05;;
21539;SDS011;10931;52.164;5.518;2022-09-03T23:57:44;1.80;;;1.10;;
